createdAt,value
2022-10-16T00:02:19.733Z,6.60
2022-10-16T00:07:27.995Z,6.97
2022-10-16T00:12:36.432Z,6.27
2022-10-16T00:17:44.313Z,6.17
2022-10-16T00:22:52.624Z,6.13
2022-10-16T00:28:01.624Z,5.93
2022-10-16T00:33:09.563Z,6.00
2022-10-16T00:38:17.535Z,5.40
2022-10-16T00:43:28.513Z,6.00
2022-10-16T00:48:36.371Z,5.57
2022-10-16T00:53:44.218Z,5.20
2022-10-16T00:58:52.062Z,5.20
2022-10-16T01:04:00.046Z,4.93
2022-10-16T01:09:11.350Z,5.10
2022-10-16T01:14:22.920Z,5.67
2022-10-16T01:24:53.147Z,7.27
2022-10-16T01:30:04.114Z,5.20
2022-10-16T01:35:14.295Z,4.60
2022-10-16T01:40:22.805Z,5.40
2022-10-16T01:45:31.914Z,5.30
2022-10-16T01:50:41.250Z,4.77
2022-10-16T01:55:49.943Z,5.03
2022-10-16T02:00:59.585Z,5.30
2022-10-16T02:06:08.680Z,5.00
2022-10-16T02:11:16.595Z,5.83
2022-10-16T02:16:27.591Z,5.70
2022-10-16T02:21:39.993Z,5.30
2022-10-16T02:26:51.316Z,5.57
2022-10-16T02:32:01.437Z,5.13
2022-10-16T02:37:10.893Z,5.20
2022-10-16T02:42:20.102Z,4.80
2022-10-16T02:47:27.888Z,4.97
2022-10-16T02:52:36.737Z,5.20
2022-10-16T02:57:45.680Z,5.30
2022-10-16T03:02:53.886Z,4.63
2022-10-16T03:08:01.941Z,5.63
2022-10-16T03:13:10.027Z,6.07
2022-10-16T03:18:18.117Z,5.83
2022-10-16T03:23:26.011Z,5.83
2022-10-16T03:28:34.918Z,6.90
2022-10-16T03:33:42.772Z,6.40
2022-10-16T03:38:50.568Z,6.10
2022-10-16T03:43:58.458Z,6.00
2022-10-16T03:49:08.939Z,6.70
2022-10-16T03:54:15.883Z,6.20
2022-10-16T03:59:24.445Z,6.03
2022-10-16T04:04:32.249Z,7.10
2022-10-16T04:09:40.250Z,6.63
2022-10-16T04:14:48.140Z,7.30
2022-10-16T04:19:56.849Z,6.63
2022-10-16T04:25:04.743Z,6.40
2022-10-16T04:30:12.827Z,6.80
2022-10-16T04:35:21.165Z,6.70
2022-10-16T04:40:29.264Z,6.37
2022-10-16T04:45:37.551Z,6.50
2022-10-16T04:50:45.326Z,7.20
2022-10-16T04:55:53.146Z,6.70
2022-10-16T05:01:00.950Z,7.17
2022-10-16T05:06:09.135Z,8.23
2022-10-16T05:11:16.988Z,7.60
2022-10-16T05:16:24.854Z,7.43
2022-10-16T05:21:32.692Z,7.30
2022-10-16T05:26:40.512Z,7.63
2022-10-16T05:31:48.914Z,7.50
2022-10-16T05:36:57.216Z,8.17
2022-10-16T05:42:05.816Z,8.47
2022-10-16T05:47:15.720Z,8.13
2022-10-16T05:52:24.275Z,8.53
2022-10-16T05:57:33.303Z,8.67
2022-10-16T06:02:41.294Z,8.60
2022-10-16T06:07:49.151Z,8.50
2022-10-16T06:12:58.024Z,7.53
2022-10-16T06:18:06.357Z,7.50
2022-10-16T06:23:14.216Z,8.40
2022-10-16T06:28:22.277Z,8.77
2022-10-16T06:33:30.506Z,9.07
2022-10-16T06:38:39.492Z,7.10
2022-10-16T06:43:47.489Z,6.50
2022-10-16T06:48:55.487Z,6.27
2022-10-16T06:54:04.493Z,6.20
2022-10-16T06:59:12.466Z,5.60
2022-10-16T07:04:21.963Z,5.97
2022-10-16T07:14:38.644Z,4.83
2022-10-16T07:19:47.437Z,5.10
2022-10-16T07:24:58.276Z,4.70
2022-10-16T07:30:09.111Z,4.53
2022-10-16T07:35:16.643Z,4.93
2022-10-16T07:40:25.659Z,4.47
2022-10-16T07:45:34.530Z,4.57
2022-10-16T07:50:42.595Z,3.93
2022-10-16T07:55:50.671Z,4.47
2022-10-16T08:00:59.150Z,4.10
2022-10-16T08:06:07.579Z,4.60
2022-10-16T08:11:16.058Z,4.43
2022-10-16T08:16:23.841Z,4.80
2022-10-16T08:21:31.765Z,4.20
2022-10-16T08:26:40.185Z,4.13
2022-10-16T08:31:48.056Z,3.60
2022-10-16T08:36:56.496Z,3.83
2022-10-16T08:47:20.527Z,3.77
2022-10-16T08:52:30.965Z,4.70
2022-10-16T08:57:38.747Z,3.53
2022-10-16T09:02:51.931Z,3.77
2022-10-16T09:08:04.678Z,3.93
2022-10-16T09:13:15.648Z,3.77
2022-10-16T09:18:30.010Z,3.70
2022-10-16T09:23:38.251Z,3.80
2022-10-16T09:28:46.175Z,3.70
2022-10-16T09:33:56.615Z,3.93
2022-10-16T09:39:06.685Z,3.43
2022-10-16T09:44:17.720Z,3.77
2022-10-16T09:49:27.316Z,3.87
2022-10-16T09:54:35.193Z,3.47
2022-10-16T09:59:46.138Z,4.20
2022-10-16T10:04:57.353Z,4.30
2022-10-16T10:10:07.106Z,3.93
2022-10-16T10:15:16.896Z,3.07
2022-10-16T10:20:29.201Z,2.90
2022-10-16T10:25:40.482Z,2.90
2022-10-16T10:30:51.441Z,2.63
2022-10-16T10:41:16.944Z,2.40
2022-10-16T10:46:29.467Z,2.30
2022-10-16T10:51:40.469Z,1.20
2022-10-16T10:56:51.468Z,1.40
2022-10-16T11:02:02.730Z,1.60
2022-10-16T11:07:14.394Z,1.60
2022-10-16T11:12:25.660Z,1.23
2022-10-16T11:17:36.737Z,1.43
2022-10-16T11:22:48.623Z,1.30
2022-10-16T11:33:14.040Z,1.57
2022-10-16T11:38:25.557Z,1.37
2022-10-16T11:43:37.398Z,1.30
2022-10-16T11:48:50.459Z,2.07
2022-10-16T11:54:01.398Z,2.53
2022-10-16T11:59:12.832Z,2.77
2022-10-16T12:04:23.806Z,3.20
2022-10-16T12:09:33.623Z,3.10
2022-10-16T12:15:03.750Z,2.87
2022-10-16T12:19:57.188Z,3.53
2022-10-16T12:25:05.135Z,3.90
2022-10-16T12:30:16.140Z,3.67
2022-10-16T12:35:26.975Z,4.37
2022-10-16T12:40:36.287Z,4.00
2022-10-16T12:45:44.163Z,4.10
2022-10-16T12:50:51.948Z,3.90
2022-10-16T12:56:03.270Z,4.83
2022-10-16T13:01:14.719Z,5.40
2022-10-16T13:06:25.765Z,5.43
2022-10-16T13:11:36.761Z,6.23
2022-10-16T13:16:47.752Z,6.13
2022-10-16T13:21:59.229Z,5.80
2022-10-16T13:27:12.549Z,6.70
2022-10-16T13:32:20.945Z,6.60
2022-10-16T13:37:29.402Z,6.07
2022-10-16T13:42:39.124Z,5.87
2022-10-16T13:47:47.005Z,6.83
2022-10-16T13:52:56.390Z,6.57
2022-10-16T13:58:07.657Z,5.80
2022-10-16T14:03:17.422Z,6.13
2022-10-16T14:08:25.810Z,6.30
2022-10-16T14:13:36.676Z,6.10
2022-10-16T14:18:46.080Z,5.77
2022-10-16T14:23:54.468Z,4.63
2022-10-16T14:29:05.620Z,4.57
2022-10-16T14:34:16.750Z,4.73
2022-10-16T14:39:25.162Z,5.60
2022-10-16T14:44:34.545Z,5.83
2022-10-16T14:49:44.209Z,5.60
2022-10-16T14:54:54.791Z,5.90
2022-10-16T15:00:02.878Z,5.73
2022-10-16T15:05:15.404Z,6.07
2022-10-16T15:10:26.134Z,6.77
2022-10-16T15:15:37.434Z,6.20
2022-10-16T15:20:45.662Z,6.00
2022-10-16T15:25:56.779Z,6.30
2022-10-16T15:31:04.784Z,6.93
2022-10-16T15:36:13.308Z,7.47
2022-10-16T15:41:21.656Z,7.00
2022-10-16T15:46:31.075Z,7.43
2022-10-16T15:51:41.030Z,7.77
2022-10-16T15:56:49.031Z,7.43
2022-10-16T16:01:57.093Z,8.33
2022-10-16T16:07:06.061Z,8.50
2022-10-16T16:12:14.089Z,8.00
2022-10-16T16:17:22.265Z,8.50
2022-10-16T16:22:30.766Z,8.57
2022-10-16T16:27:39.831Z,9.73
2022-10-16T16:32:48.264Z,9.33
2022-10-16T16:37:56.324Z,9.73
2022-10-16T16:43:05.233Z,10.47
2022-10-16T16:48:13.192Z,11.47
2022-10-16T16:53:21.316Z,11.73
2022-10-16T16:58:29.209Z,10.70
2022-10-16T17:03:38.023Z,9.93
2022-10-16T17:08:46.897Z,10.37
2022-10-16T17:13:57.152Z,9.97
2022-10-16T17:19:06.849Z,10.20
2022-10-16T17:24:14.856Z,10.33
2022-10-16T17:29:22.823Z,10.10
2022-10-16T17:34:30.762Z,10.50
2022-10-16T17:39:38.695Z,10.13
2022-10-16T17:44:47.338Z,9.93
2022-10-16T17:49:55.615Z,10.57
2022-10-16T17:55:03.724Z,10.67
2022-10-16T18:00:12.364Z,10.73
2022-10-16T18:05:23.985Z,10.87
2022-10-16T18:10:35.002Z,11.53
2022-10-16T18:15:45.931Z,12.27
2022-10-16T18:20:57.457Z,12.20
2022-10-16T18:26:06.586Z,12.07
2022-10-16T18:31:17.102Z,11.73
2022-10-16T18:36:30.096Z,12.30
2022-10-16T18:41:39.163Z,12.43
2022-10-16T18:46:47.844Z,13.03
2022-10-16T18:51:57.517Z,11.67
2022-10-16T18:57:06.628Z,12.60
2022-10-16T19:02:15.903Z,12.90
2022-10-16T19:07:25.143Z,12.40
2022-10-16T19:12:35.282Z,14.03
2022-10-16T19:17:44.606Z,13.53
2022-10-16T19:22:55.364Z,13.97
2022-10-16T19:28:07.169Z,14.53
2022-10-16T19:33:19.446Z,13.90
2022-10-16T19:38:29.945Z,15.33
2022-10-16T19:43:38.373Z,16.90
2022-10-16T19:48:50.355Z,15.93
2022-10-16T19:54:00.899Z,17.10
2022-10-16T19:59:13.220Z,18.33
2022-10-16T20:04:21.416Z,16.37
2022-10-16T20:09:29.469Z,16.13
2022-10-16T20:14:37.666Z,16.43
2022-10-16T20:19:45.750Z,18.10
2022-10-16T20:24:57.030Z,19.07
2022-10-16T20:30:08.633Z,17.77
2022-10-16T20:35:22.325Z,18.67
2022-10-16T20:40:30.658Z,25.17
2022-10-16T20:45:38.648Z,28.33
2022-10-16T20:50:46.780Z,31.50
2022-10-16T20:55:55.000Z,25.90
2022-10-16T21:01:06.184Z,23.33
2022-10-16T21:06:14.399Z,19.73
2022-10-16T21:11:25.418Z,20.03
2022-10-16T21:16:35.065Z,20.00
2022-10-16T21:21:44.387Z,21.53
2022-10-16T21:26:52.340Z,20.50
2022-10-16T21:32:00.351Z,22.10
2022-10-16T21:37:08.581Z,21.33
2022-10-16T21:42:33.288Z,21.20
2022-10-16T21:47:41.907Z,22.23
2022-10-16T21:52:50.206Z,22.37
2022-10-16T21:57:58.166Z,21.70
2022-10-16T22:03:06.355Z,21.50
2022-10-16T22:08:16.192Z,21.83
2022-10-16T22:13:24.234Z,23.53
2022-10-16T22:18:32.492Z,21.00
2022-10-16T22:23:40.539Z,19.80
2022-10-16T22:28:49.473Z,18.53
2022-10-16T22:33:58.400Z,18.20
2022-10-16T22:39:06.506Z,18.97
2022-10-16T22:44:14.584Z,17.73
2022-10-16T22:49:22.486Z,20.07
2022-10-16T22:54:30.324Z,21.83
2022-10-16T22:59:38.266Z,21.10
2022-10-16T23:04:46.543Z,22.40
2022-10-16T23:09:55.523Z,20.90
2022-10-16T23:15:03.622Z,20.93
2022-10-16T23:20:11.934Z,23.40
2022-10-16T23:25:21.373Z,24.13
2022-10-16T23:30:29.595Z,23.73
2022-10-16T23:35:41.852Z,23.77
2022-10-16T23:40:49.717Z,23.00
2022-10-16T23:45:58.632Z,27.60
2022-10-16T23:51:07.670Z,31.47
2022-10-16T23:56:15.504Z,29.63
